sensor_id;sensor_type;location;lat;lon;timestamp;P1;durP1;ratioP1;P2;durP2;ratioP2
20456;SDS011;10387;51.102;6.848;2023-02-24T00:01:17;17.77;;;7.10;;
20456;SDS011;10387;51.102;6.848;2023-02-24T00:03:50;14.37;;;6.77;;
20456;SDS011;10387;51.102;6.848;2023-02-24T00:06:17;17.30;;;7.03;;
20456;SDS011;10387;51.102;6.848;2023-02-24T00:08:43;15.00;;;6.73;;
20456;SDS011;10387;51.102;6.848;2023-02-24T00:11:10;11.80;;;6.63;;
20456;SDS011;10387;51.102;6.848;2023-02-24T00:13:40;14.57;;;7.30;;
20456;SDS011;10387;51.102;6.848;2023-02-24T00:16:10;18.33;;;8.70;;
20456;SDS011;10387;51.102;6.848;2023-02-24T00:18:38;16.47;;;8.20;;
20456;SDS011;10387;51.102;6.848;2023-02-24T00:21:05;17.50;;;7.47;;
20456;SDS011;10387;51.102;6.848;2023-02-24T00:23:37;16.50;;;8.80;;
20456;SDS011;10387;51.102;6.848;2023-02-24T00:26:05;17.00;;;9.33;;
20456;SDS011;10387;51.102;6.848;2023-02-24T00:28:33;18.00;;;9.67;;
20456;SDS011;10387;51.102;6.848;2023-02-24T00:31:03;18.33;;;9.60;;
20456;SDS011;10387;51.102;6.848;2023-02-24T00:33:31;19.20;;;10.03;;
20456;SDS011;10387;51.102;6.848;2023-02-24T00:36:07;19.03;;;10.03;;
20456;SDS011;10387;51.102;6.848;2023-02-24T00:38:35;18.30;;;9.27;;
20456;SDS011;10387;51.102;6.848;2023-02-24T00:41:09;19.67;;;10.50;;
20456;SDS011;10387;51.102;6.848;2023-02-24T00:43:38;19.20;;;9.50;;
20456;SDS011;10387;51.102;6.848;2023-02-24T00:46:05;17.77;;;9.53;;
20456;SDS011;10387;51.102;6.848;2023-02-24T00:48:38;20.60;;;10.10;;
20456;SDS011;10387;51.102;6.848;2023-02-24T00:51:08;18.73;;;10.23;;
20456;SDS011;10387;51.102;6.848;2023-02-24T00:53:35;19.97;;;10.93;;
20456;SDS011;10387;51.102;6.848;2023-02-24T00:56:03;24.17;;;11.40;;
20456;SDS011;10387;51.102;6.848;2023-02-24T00:58:33;19.13;;;11.07;;
20456;SDS011;10387;51.102;6.848;2023-02-24T01:00:59;24.07;;;13.17;;
20456;SDS011;10387;51.102;6.848;2023-02-24T01:03:26;24.53;;;11.00;;
20456;SDS011;10387;51.102;6.848;2023-02-24T01:05:54;26.77;;;13.33;;
20456;SDS011;10387;51.102;6.848;2023-02-24T01:08:19;29.83;;;15.03;;
20456;SDS011;10387;51.102;6.848;2023-02-24T01:10:53;27.43;;;15.43;;
20456;SDS011;10387;51.102;6.848;2023-02-24T01:13:41;34.63;;;14.67;;
20456;SDS011;10387;51.102;6.848;2023-02-24T01:16:06;36.10;;;16.57;;
20456;SDS011;10387;51.102;6.848;2023-02-24T01:18:32;30.33;;;15.33;;
20456;SDS011;10387;51.102;6.848;2023-02-24T01:20:58;30.50;;;14.80;;
20456;SDS011;10387;51.102;6.848;2023-02-24T01:23:24;32.27;;;15.17;;
20456;SDS011;10387;51.102;6.848;2023-02-24T01:25:50;32.13;;;14.63;;
20456;SDS011;10387;51.102;6.848;2023-02-24T01:28:18;32.37;;;14.43;;
20456;SDS011;10387;51.102;6.848;2023-02-24T01:30:44;27.70;;;13.43;;
20456;SDS011;10387;51.102;6.848;2023-02-24T01:33:10;26.77;;;14.10;;
20456;SDS011;10387;51.102;6.848;2023-02-24T01:35:41;28.57;;;14.03;;
20456;SDS011;10387;51.102;6.848;2023-02-24T01:38:07;32.20;;;13.80;;
20456;SDS011;10387;51.102;6.848;2023-02-24T01:40:33;25.53;;;13.23;;
20456;SDS011;10387;51.102;6.848;2023-02-24T01:42:58;24.90;;;11.47;;
20456;SDS011;10387;51.102;6.848;2023-02-24T01:45:25;23.83;;;11.67;;
20456;SDS011;10387;51.102;6.848;2023-02-24T01:47:58;23.57;;;12.10;;
20456;SDS011;10387;51.102;6.848;2023-02-24T01:50:26;31.07;;;12.63;;
20456;SDS011;10387;51.102;6.848;2023-02-24T01:52:57;27.73;;;12.37;;
20456;SDS011;10387;51.102;6.848;2023-02-24T01:55:37;26.43;;;13.23;;
20456;SDS011;10387;51.102;6.848;2023-02-24T01:58:13;29.83;;;13.53;;
20456;SDS011;10387;51.102;6.848;2023-02-24T02:00:49;29.83;;;14.17;;
20456;SDS011;10387;51.102;6.848;2023-02-24T02:03:22;35.67;;;15.57;;
20456;SDS011;10387;51.102;6.848;2023-02-24T02:05:57;35.87;;;16.10;;
20456;SDS011;10387;51.102;6.848;2023-02-24T02:08:26;40.07;;;15.40;;
20456;SDS011;10387;51.102;6.848;2023-02-24T02:10:53;34.63;;;15.40;;
20456;SDS011;10387;51.102;6.848;2023-02-24T02:13:23;36.20;;;14.73;;
20456;SDS011;10387;51.102;6.848;2023-02-24T02:18:51;40.53;;;17.13;;
20456;SDS011;10387;51.102;6.848;2023-02-24T02:24:44;35.03;;;16.23;;
20456;SDS011;10387;51.102;6.848;2023-02-24T02:35:43;32.53;;;12.73;;
20456;SDS011;10387;51.102;6.848;2023-02-24T02:38:23;32.20;;;12.93;;
20456;SDS011;10387;51.102;6.848;2023-02-24T02:47:28;20.20;;;9.87;;
20456;SDS011;10387;51.102;6.848;2023-02-24T02:52:58;27.63;;;11.53;;
20456;SDS011;10387;51.102;6.848;2023-02-24T02:57:54;35.33;;;15.03;;
20456;SDS011;10387;51.102;6.848;2023-02-24T03:00:26;28.27;;;12.47;;
20456;SDS011;10387;51.102;6.848;2023-02-24T03:03:03;32.63;;;12.43;;
20456;SDS011;10387;51.102;6.848;2023-02-24T03:05:36;28.00;;;13.20;;
20456;SDS011;10387;51.102;6.848;2023-02-24T03:08:12;29.33;;;12.17;;
20456;SDS011;10387;51.102;6.848;2023-02-24T03:10:43;20.10;;;11.97;;
20456;SDS011;10387;51.102;6.848;2023-02-24T03:13:15;30.40;;;13.10;;
20456;SDS011;10387;51.102;6.848;2023-02-24T03:15:46;27.50;;;12.30;;
20456;SDS011;10387;51.102;6.848;2023-02-24T03:18:18;29.63;;;13.10;;
20456;SDS011;10387;51.102;6.848;2023-02-24T03:20:56;30.47;;;13.20;;
20456;SDS011;10387;51.102;6.848;2023-02-24T03:23:31;33.53;;;12.73;;
20456;SDS011;10387;51.102;6.848;2023-02-24T03:26:10;33.17;;;12.23;;
20456;SDS011;10387;51.102;6.848;2023-02-24T03:28:48;30.43;;;11.73;;
20456;SDS011;10387;51.102;6.848;2023-02-24T03:34:29;23.83;;;10.70;;
20456;SDS011;10387;51.102;6.848;2023-02-24T03:37:07;23.90;;;10.50;;
20456;SDS011;10387;51.102;6.848;2023-02-24T03:39:33;25.63;;;10.57;;
20456;SDS011;10387;51.102;6.848;2023-02-24T03:42:17;23.13;;;10.37;;
20456;SDS011;10387;51.102;6.848;2023-02-24T03:44:45;24.40;;;11.37;;
20456;SDS011;10387;51.102;6.848;2023-02-24T03:47:12;20.07;;;10.67;;
20456;SDS011;10387;51.102;6.848;2023-02-24T03:49:40;23.40;;;11.60;;
20456;SDS011;10387;51.102;6.848;2023-02-24T04:03:00;18.33;;;7.87;;
20456;SDS011;10387;51.102;6.848;2023-02-24T04:05:36;15.23;;;7.73;;
20456;SDS011;10387;51.102;6.848;2023-02-24T04:08:12;27.83;;;8.57;;
20456;SDS011;10387;51.102;6.848;2023-02-24T04:10:50;21.53;;;8.80;;
20456;SDS011;10387;51.102;6.848;2023-02-24T04:13:29;20.20;;;7.90;;
20456;SDS011;10387;51.102;6.848;2023-02-24T04:16:16;19.47;;;8.07;;
20456;SDS011;10387;51.102;6.848;2023-02-24T04:18:57;19.70;;;7.93;;
20456;SDS011;10387;51.102;6.848;2023-02-24T04:21:29;20.33;;;8.73;;
20456;SDS011;10387;51.102;6.848;2023-02-24T04:23:57;19.77;;;8.53;;
20456;SDS011;10387;51.102;6.848;2023-02-24T04:26:27;16.53;;;7.43;;
20456;SDS011;10387;51.102;6.848;2023-02-24T04:28:55;18.23;;;7.63;;
20456;SDS011;10387;51.102;6.848;2023-02-24T04:31:21;24.27;;;8.90;;
20456;SDS011;10387;51.102;6.848;2023-02-24T04:33:50;20.90;;;7.20;;
20456;SDS011;10387;51.102;6.848;2023-02-24T04:36:21;21.97;;;7.90;;
20456;SDS011;10387;51.102;6.848;2023-02-24T04:38:48;19.57;;;8.40;;
20456;SDS011;10387;51.102;6.848;2023-02-24T04:41:15;19.97;;;9.63;;
20456;SDS011;10387;51.102;6.848;2023-02-24T04:43:46;33.13;;;17.33;;
20456;SDS011;10387;51.102;6.848;2023-02-24T04:46:15;38.10;;;21.80;;
20456;SDS011;10387;51.102;6.848;2023-02-24T04:48:42;31.10;;;19.70;;
20456;SDS011;10387;51.102;6.848;2023-02-24T04:51:08;28.47;;;16.97;;
20456;SDS011;10387;51.102;6.848;2023-02-24T04:53:33;26.00;;;13.60;;
20456;SDS011;10387;51.102;6.848;2023-02-24T04:56:02;23.00;;;10.30;;
20456;SDS011;10387;51.102;6.848;2023-02-24T04:58:36;20.70;;;9.40;;
20456;SDS011;10387;51.102;6.848;2023-02-24T05:01:07;16.73;;;8.53;;
20456;SDS011;10387;51.102;6.848;2023-02-24T05:03:35;17.00;;;7.10;;
20456;SDS011;10387;51.102;6.848;2023-02-24T05:06:02;18.40;;;7.67;;
20456;SDS011;10387;51.102;6.848;2023-02-24T05:08:30;16.57;;;5.93;;
20456;SDS011;10387;51.102;6.848;2023-02-24T05:10:56;15.77;;;6.57;;
20456;SDS011;10387;51.102;6.848;2023-02-24T05:13:24;13.00;;;5.20;;
20456;SDS011;10387;51.102;6.848;2023-02-24T05:15:53;14.70;;;5.33;;
20456;SDS011;10387;51.102;6.848;2023-02-24T05:18:20;14.27;;;6.00;;
20456;SDS011;10387;51.102;6.848;2023-02-24T05:20:54;15.53;;;5.77;;
20456;SDS011;10387;51.102;6.848;2023-02-24T05:23:40;15.53;;;5.87;;
20456;SDS011;10387;51.102;6.848;2023-02-24T05:26:15;12.30;;;5.90;;
20456;SDS011;10387;51.102;6.848;2023-02-24T05:28:44;19.20;;;6.37;;
20456;SDS011;10387;51.102;6.848;2023-02-24T05:31:25;15.70;;;5.70;;
20456;SDS011;10387;51.102;6.848;2023-02-24T05:33:54;14.30;;;6.13;;
20456;SDS011;10387;51.102;6.848;2023-02-24T05:36:21;15.97;;;5.67;;
20456;SDS011;10387;51.102;6.848;2023-02-24T05:38:50;17.03;;;5.73;;
20456;SDS011;10387;51.102;6.848;2023-02-24T05:41:22;16.53;;;5.80;;
20456;SDS011;10387;51.102;6.848;2023-02-24T05:43:56;14.33;;;5.33;;
20456;SDS011;10387;51.102;6.848;2023-02-24T05:46:26;17.43;;;5.73;;
20456;SDS011;10387;51.102;6.848;2023-02-24T05:48:54;14.60;;;6.23;;
20456;SDS011;10387;51.102;6.848;2023-02-24T05:51:24;13.30;;;6.00;;
20456;SDS011;10387;51.102;6.848;2023-02-24T05:53:51;18.53;;;6.47;;
20456;SDS011;10387;51.102;6.848;2023-02-24T05:56:20;15.50;;;6.43;;
20456;SDS011;10387;51.102;6.848;2023-02-24T05:58:48;14.70;;;6.43;;
20456;SDS011;10387;51.102;6.848;2023-02-24T06:01:29;17.60;;;7.90;;
20456;SDS011;10387;51.102;6.848;2023-02-24T06:03:58;18.77;;;7.43;;
20456;SDS011;10387;51.102;6.848;2023-02-24T06:06:32;12.60;;;6.97;;
20456;SDS011;10387;51.102;6.848;2023-02-24T06:09:10;14.27;;;7.17;;
20456;SDS011;10387;51.102;6.848;2023-02-24T06:11:40;15.90;;;7.53;;
20456;SDS011;10387;51.102;6.848;2023-02-24T06:14:07;14.30;;;6.43;;
20456;SDS011;10387;51.102;6.848;2023-02-24T06:16:35;18.37;;;6.87;;
20456;SDS011;10387;51.102;6.848;2023-02-24T06:19:01;13.07;;;6.63;;
20456;SDS011;10387;51.102;6.848;2023-02-24T06:21:28;13.20;;;6.33;;
20456;SDS011;10387;51.102;6.848;2023-02-24T06:23:55;15.97;;;7.10;;
20456;SDS011;10387;51.102;6.848;2023-02-24T06:26:22;15.47;;;5.97;;
20456;SDS011;10387;51.102;6.848;2023-02-24T06:28:51;14.23;;;7.03;;
20456;SDS011;10387;51.102;6.848;2023-02-24T06:31:18;17.07;;;6.47;;
20456;SDS011;10387;51.102;6.848;2023-02-24T06:33:45;14.37;;;5.93;;
20456;SDS011;10387;51.102;6.848;2023-02-24T06:36:12;14.93;;;5.93;;
20456;SDS011;10387;51.102;6.848;2023-02-24T06:38:38;14.83;;;6.30;;
20456;SDS011;10387;51.102;6.848;2023-02-24T06:41:04;16.17;;;5.93;;
20456;SDS011;10387;51.102;6.848;2023-02-24T06:43:38;20.27;;;6.27;;
20456;SDS011;10387;51.102;6.848;2023-02-24T06:46:07;17.57;;;6.27;;
20456;SDS011;10387;51.102;6.848;2023-02-24T06:48:34;14.67;;;6.30;;
20456;SDS011;10387;51.102;6.848;2023-02-24T06:51:12;16.37;;;6.50;;
20456;SDS011;10387;51.102;6.848;2023-02-24T06:53:40;16.47;;;6.13;;
20456;SDS011;10387;51.102;6.848;2023-02-24T06:56:13;16.13;;;5.93;;
20456;SDS011;10387;51.102;6.848;2023-02-24T06:58:45;14.47;;;6.00;;
20456;SDS011;10387;51.102;6.848;2023-02-24T07:01:15;11.73;;;5.60;;
20456;SDS011;10387;51.102;6.848;2023-02-24T07:03:49;16.70;;;6.27;;
20456;SDS011;10387;51.102;6.848;2023-02-24T07:06:33;12.40;;;6.03;;
20456;SDS011;10387;51.102;6.848;2023-02-24T07:09:01;16.50;;;6.47;;
20456;SDS011;10387;51.102;6.848;2023-02-24T07:11:29;16.77;;;6.20;;
20456;SDS011;10387;51.102;6.848;2023-02-24T07:13:57;12.63;;;5.13;;
20456;SDS011;10387;51.102;6.848;2023-02-24T07:16:23;20.00;;;6.67;;
20456;SDS011;10387;51.102;6.848;2023-02-24T07:18:52;19.40;;;6.07;;
20456;SDS011;10387;51.102;6.848;2023-02-24T07:21:21;15.87;;;6.23;;
20456;SDS011;10387;51.102;6.848;2023-02-24T07:23:48;14.47;;;6.13;;
20456;SDS011;10387;51.102;6.848;2023-02-24T07:26:21;15.93;;;6.43;;
20456;SDS011;10387;51.102;6.848;2023-02-24T07:28:50;15.73;;;5.93;;
20456;SDS011;10387;51.102;6.848;2023-02-24T07:31:19;12.93;;;6.07;;
20456;SDS011;10387;51.102;6.848;2023-02-24T07:33:46;16.10;;;5.27;;
20456;SDS011;10387;51.102;6.848;2023-02-24T07:36:13;12.17;;;5.57;;
20456;SDS011;10387;51.102;6.848;2023-02-24T07:38:43;21.43;;;6.00;;
20456;SDS011;10387;51.102;6.848;2023-02-24T07:41:12;14.07;;;5.47;;
20456;SDS011;10387;51.102;6.848;2023-02-24T07:43:43;12.33;;;5.93;;
20456;SDS011;10387;51.102;6.848;2023-02-24T07:46:12;13.83;;;5.60;;
20456;SDS011;10387;51.102;6.848;2023-02-24T07:48:39;16.83;;;6.20;;
20456;SDS011;10387;51.102;6.848;2023-02-24T07:51:09;18.93;;;6.23;;
20456;SDS011;10387;51.102;6.848;2023-02-24T07:53:39;16.33;;;5.73;;
20456;SDS011;10387;51.102;6.848;2023-02-24T07:58:41;19.97;;;6.50;;
20456;SDS011;10387;51.102;6.848;2023-02-24T08:01:17;16.83;;;6.53;;
20456;SDS011;10387;51.102;6.848;2023-02-24T08:03:52;17.30;;;6.60;;
20456;SDS011;10387;51.102;6.848;2023-02-24T08:06:33;19.40;;;6.53;;
20456;SDS011;10387;51.102;6.848;2023-02-24T08:09:04;15.40;;;6.70;;
20456;SDS011;10387;51.102;6.848;2023-02-24T08:11:42;14.00;;;7.43;;
20456;SDS011;10387;51.102;6.848;2023-02-24T08:14:21;13.50;;;8.07;;
20456;SDS011;10387;51.102;6.848;2023-02-24T08:16:53;16.37;;;8.00;;
20456;SDS011;10387;51.102;6.848;2023-02-24T08:19:24;20.77;;;8.80;;
20456;SDS011;10387;51.102;6.848;2023-02-24T08:22:03;17.27;;;7.90;;
20456;SDS011;10387;51.102;6.848;2023-02-24T08:24:58;14.47;;;6.90;;
20456;SDS011;10387;51.102;6.848;2023-02-24T08:27:30;17.33;;;7.47;;
20456;SDS011;10387;51.102;6.848;2023-02-24T08:29:58;14.00;;;6.70;;
20456;SDS011;10387;51.102;6.848;2023-02-24T08:32:27;15.57;;;6.43;;
20456;SDS011;10387;51.102;6.848;2023-02-24T08:34:58;16.50;;;7.20;;
20456;SDS011;10387;51.102;6.848;2023-02-24T08:37:27;14.30;;;7.13;;
20456;SDS011;10387;51.102;6.848;2023-02-24T08:39:58;14.90;;;6.47;;
20456;SDS011;10387;51.102;6.848;2023-02-24T08:42:24;16.53;;;6.57;;
20456;SDS011;10387;51.102;6.848;2023-02-24T08:44:59;12.33;;;6.70;;
20456;SDS011;10387;51.102;6.848;2023-02-24T08:47:26;13.27;;;6.20;;
20456;SDS011;10387;51.102;6.848;2023-02-24T08:49:58;12.73;;;7.30;;
20456;SDS011;10387;51.102;6.848;2023-02-24T08:52:31;11.17;;;6.27;;
20456;SDS011;10387;51.102;6.848;2023-02-24T08:54:58;10.50;;;5.90;;
20456;SDS011;10387;51.102;6.848;2023-02-24T08:57:25;14.43;;;6.80;;
20456;SDS011;10387;51.102;6.848;2023-02-24T08:59:52;13.87;;;5.63;;
20456;SDS011;10387;51.102;6.848;2023-02-24T09:02:22;13.23;;;5.97;;
20456;SDS011;10387;51.102;6.848;2023-02-24T09:05:01;13.87;;;5.73;;
20456;SDS011;10387;51.102;6.848;2023-02-24T09:07:35;14.83;;;6.30;;
20456;SDS011;10387;51.102;6.848;2023-02-24T09:10:13;15.03;;;5.53;;
20456;SDS011;10387;51.102;6.848;2023-02-24T09:12:42;9.93;;;5.87;;
20456;SDS011;10387;51.102;6.848;2023-02-24T09:15:09;10.67;;;5.97;;
20456;SDS011;10387;51.102;6.848;2023-02-24T09:17:40;11.87;;;5.37;;
20456;SDS011;10387;51.102;6.848;2023-02-24T09:20:14;7.30;;;4.87;;
20456;SDS011;10387;51.102;6.848;2023-02-24T09:23:00;13.67;;;5.00;;
20456;SDS011;10387;51.102;6.848;2023-02-24T09:25:34;9.10;;;5.13;;
20456;SDS011;10387;51.102;6.848;2023-02-24T09:30:43;12.33;;;5.70;;
20456;SDS011;10387;51.102;6.848;2023-02-24T09:33:21;11.50;;;5.50;;
20456;SDS011;10387;51.102;6.848;2023-02-24T09:35:58;9.53;;;4.60;;
20456;SDS011;10387;51.102;6.848;2023-02-24T09:38:41;10.40;;;5.27;;
20456;SDS011;10387;51.102;6.848;2023-02-24T09:47:27;10.10;;;6.13;;
20456;SDS011;10387;51.102;6.848;2023-02-24T09:52:44;9.50;;;6.47;;
20456;SDS011;10387;51.102;6.848;2023-02-24T09:58:13;14.40;;;7.17;;
20456;SDS011;10387;51.102;6.848;2023-02-24T10:07:37;11.73;;;7.03;;
20456;SDS011;10387;51.102;6.848;2023-02-24T10:09:56;9.73;;;5.63;;
20456;SDS011;10387;51.102;6.848;2023-02-24T10:12:45;12.57;;;6.43;;
20456;SDS011;10387;51.102;6.848;2023-02-24T10:15:30;12.10;;;6.67;;
20456;SDS011;10387;51.102;6.848;2023-02-24T10:18:39;14.20;;;6.50;;
20456;SDS011;10387;51.102;6.848;2023-02-24T10:27:18;12.43;;;6.63;;
20456;SDS011;10387;51.102;6.848;2023-02-24T10:33:05;14.23;;;6.73;;
20456;SDS011;10387;51.102;6.848;2023-02-24T10:35:40;10.13;;;6.60;;
20456;SDS011;10387;51.102;6.848;2023-02-24T10:38:07;12.23;;;7.43;;
20456;SDS011;10387;51.102;6.848;2023-02-24T10:40:42;12.50;;;7.30;;
20456;SDS011;10387;51.102;6.848;2023-02-24T10:43:21;10.20;;;6.37;;
20456;SDS011;10387;51.102;6.848;2023-02-24T10:45:57;10.97;;;7.30;;
20456;SDS011;10387;51.102;6.848;2023-02-24T10:48:31;10.87;;;6.77;;
20456;SDS011;10387;51.102;6.848;2023-02-24T10:51:12;15.43;;;7.93;;
20456;SDS011;10387;51.102;6.848;2023-02-24T10:53:49;16.63;;;7.63;;
20456;SDS011;10387;51.102;6.848;2023-02-24T10:56:41;11.73;;;6.93;;
20456;SDS011;10387;51.102;6.848;2023-02-24T10:59:19;14.87;;;8.23;;
20456;SDS011;10387;51.102;6.848;2023-02-24T11:01:55;12.70;;;8.07;;
20456;SDS011;10387;51.102;6.848;2023-02-24T11:04:32;13.83;;;8.27;;
20456;SDS011;10387;51.102;6.848;2023-02-24T11:07:19;12.93;;;8.43;;
20456;SDS011;10387;51.102;6.848;2023-02-24T11:12:43;15.53;;;7.23;;
20456;SDS011;10387;51.102;6.848;2023-02-24T11:15:50;12.20;;;6.73;;
20456;SDS011;10387;51.102;6.848;2023-02-24T11:18:35;11.77;;;6.50;;
20456;SDS011;10387;51.102;6.848;2023-02-24T11:21:21;10.80;;;6.60;;
20456;SDS011;10387;51.102;6.848;2023-02-24T11:23:56;13.07;;;6.17;;
20456;SDS011;10387;51.102;6.848;2023-02-24T11:26:46;10.27;;;5.80;;
20456;SDS011;10387;51.102;6.848;2023-02-24T11:37:45;13.47;;;6.27;;
20456;SDS011;10387;51.102;6.848;2023-02-24T11:40:38;10.80;;;5.67;;
20456;SDS011;10387;51.102;6.848;2023-02-24T11:50:48;12.43;;;4.53;;
20456;SDS011;10387;51.102;6.848;2023-02-24T11:55:44;9.93;;;4.70;;
20456;SDS011;10387;51.102;6.848;2023-02-24T11:58:27;10.67;;;5.23;;
20456;SDS011;10387;51.102;6.848;2023-02-24T12:01:08;12.27;;;9.23;;
20456;SDS011;10387;51.102;6.848;2023-02-24T12:12:41;13.63;;;7.40;;
20456;SDS011;10387;51.102;6.848;2023-02-24T12:15:23;13.83;;;6.83;;
20456;SDS011;10387;51.102;6.848;2023-02-24T12:18:13;11.60;;;6.80;;
20456;SDS011;10387;51.102;6.848;2023-02-24T12:21:04;11.80;;;6.60;;
20456;SDS011;10387;51.102;6.848;2023-02-24T12:23:50;14.60;;;6.70;;
20456;SDS011;10387;51.102;6.848;2023-02-24T12:26:21;10.93;;;6.70;;
20456;SDS011;10387;51.102;6.848;2023-02-24T12:31:37;15.97;;;7.40;;
20456;SDS011;10387;51.102;6.848;2023-02-24T12:51:27;17.60;;;12.10;;
20456;SDS011;10387;51.102;6.848;2023-02-24T12:59:32;15.90;;;7.47;;
20456;SDS011;10387;51.102;6.848;2023-02-24T13:02:04;14.27;;;7.43;;
20456;SDS011;10387;51.102;6.848;2023-02-24T13:04:43;9.97;;;5.57;;
20456;SDS011;10387;51.102;6.848;2023-02-24T13:10:34;13.00;;;6.17;;
20456;SDS011;10387;51.102;6.848;2023-02-24T13:15:53;10.40;;;6.13;;
20456;SDS011;10387;51.102;6.848;2023-02-24T13:18:28;12.00;;;6.27;;
20456;SDS011;10387;51.102;6.848;2023-02-24T13:24:20;8.77;;;5.83;;
20456;SDS011;10387;51.102;6.848;2023-02-24T13:26:44;12.47;;;5.77;;
20456;SDS011;10387;51.102;6.848;2023-02-24T13:29:12;9.87;;;5.40;;
20456;SDS011;10387;51.102;6.848;2023-02-24T13:31:40;12.33;;;6.13;;
20456;SDS011;10387;51.102;6.848;2023-02-24T13:34:14;11.53;;;6.27;;
20456;SDS011;10387;51.102;6.848;2023-02-24T13:36:46;16.83;;;5.73;;
20456;SDS011;10387;51.102;6.848;2023-02-24T13:39:24;11.80;;;6.30;;
20456;SDS011;10387;51.102;6.848;2023-02-24T13:42:02;10.40;;;6.13;;
20456;SDS011;10387;51.102;6.848;2023-02-24T13:45:04;11.53;;;7.00;;
20456;SDS011;10387;51.102;6.848;2023-02-24T13:50:19;12.13;;;5.53;;
20456;SDS011;10387;51.102;6.848;2023-02-24T14:03:35;16.00;;;6.07;;
20456;SDS011;10387;51.102;6.848;2023-02-24T14:06:04;11.77;;;5.87;;
20456;SDS011;10387;51.102;6.848;2023-02-24T14:08:42;14.63;;;6.43;;
20456;SDS011;10387;51.102;6.848;2023-02-24T14:11:13;14.73;;;5.63;;
20456;SDS011;10387;51.102;6.848;2023-02-24T14:13:44;11.50;;;6.30;;
20456;SDS011;10387;51.102;6.848;2023-02-24T14:16:13;12.57;;;6.27;;
20456;SDS011;10387;51.102;6.848;2023-02-24T14:18:56;14.33;;;6.00;;
20456;SDS011;10387;51.102;6.848;2023-02-24T14:21:24;14.70;;;7.93;;
20456;SDS011;10387;51.102;6.848;2023-02-24T14:24:02;8.93;;;4.90;;
20456;SDS011;10387;51.102;6.848;2023-02-24T14:26:46;11.13;;;6.43;;
20456;SDS011;10387;51.102;6.848;2023-02-24T14:29:16;15.20;;;8.40;;
20456;SDS011;10387;51.102;6.848;2023-02-24T14:31:48;9.60;;;5.87;;
20456;SDS011;10387;51.102;6.848;2023-02-24T14:34:17;8.33;;;6.20;;
20456;SDS011;10387;51.102;6.848;2023-02-24T14:36:45;13.50;;;8.03;;
20456;SDS011;10387;51.102;6.848;2023-02-24T14:39:20;12.73;;;6.73;;
20456;SDS011;10387;51.102;6.848;2023-02-24T14:42:02;15.43;;;7.53;;
20456;SDS011;10387;51.102;6.848;2023-02-24T14:44:31;14.60;;;6.40;;
20456;SDS011;10387;51.102;6.848;2023-02-24T14:47:01;13.50;;;6.93;;
20456;SDS011;10387;51.102;6.848;2023-02-24T14:49:34;15.57;;;6.90;;
20456;SDS011;10387;51.102;6.848;2023-02-24T14:52:13;16.23;;;9.40;;
20456;SDS011;10387;51.102;6.848;2023-02-24T14:54:48;14.40;;;8.03;;
20456;SDS011;10387;51.102;6.848;2023-02-24T14:57:17;12.47;;;6.93;;
20456;SDS011;10387;51.102;6.848;2023-02-24T14:59:50;10.37;;;7.03;;
20456;SDS011;10387;51.102;6.848;2023-02-24T15:02:21;13.83;;;7.50;;
20456;SDS011;10387;51.102;6.848;2023-02-24T15:04:54;11.20;;;6.80;;
20456;SDS011;10387;51.102;6.848;2023-02-24T15:07:22;16.70;;;7.77;;
20456;SDS011;10387;51.102;6.848;2023-02-24T15:09:56;16.37;;;7.27;;
20456;SDS011;10387;51.102;6.848;2023-02-24T15:12:28;17.50;;;7.77;;
20456;SDS011;10387;51.102;6.848;2023-02-24T15:15:40;11.67;;;7.13;;
20456;SDS011;10387;51.102;6.848;2023-02-24T15:17:43;15.03;;;7.33;;
20456;SDS011;10387;51.102;6.848;2023-02-24T15:22:56;11.60;;;6.93;;
20456;SDS011;10387;51.102;6.848;2023-02-24T15:25:23;15.43;;;7.60;;
20456;SDS011;10387;51.102;6.848;2023-02-24T15:27:52;14.33;;;7.03;;
20456;SDS011;10387;51.102;6.848;2023-02-24T15:30:33;14.37;;;7.23;;
20456;SDS011;10387;51.102;6.848;2023-02-24T15:33:22;12.03;;;7.57;;
20456;SDS011;10387;51.102;6.848;2023-02-24T15:35:50;11.90;;;7.63;;
20456;SDS011;10387;51.102;6.848;2023-02-24T15:38:23;13.67;;;7.40;;
20456;SDS011;10387;51.102;6.848;2023-02-24T15:41:00;15.30;;;7.20;;
20456;SDS011;10387;51.102;6.848;2023-02-24T15:46:13;13.33;;;7.90;;
20456;SDS011;10387;51.102;6.848;2023-02-24T15:48:57;10.87;;;7.77;;
20456;SDS011;10387;51.102;6.848;2023-02-24T15:54:05;12.20;;;7.90;;
20456;SDS011;10387;51.102;6.848;2023-02-24T15:56:51;18.30;;;8.60;;
20456;SDS011;10387;51.102;6.848;2023-02-24T15:59:17;11.63;;;7.70;;
20456;SDS011;10387;51.102;6.848;2023-02-24T16:01:47;16.57;;;8.97;;
20456;SDS011;10387;51.102;6.848;2023-02-24T16:04:13;16.53;;;8.53;;
20456;SDS011;10387;51.102;6.848;2023-02-24T16:06:39;16.10;;;10.07;;
20456;SDS011;10387;51.102;6.848;2023-02-24T16:09:13;13.50;;;8.60;;
20456;SDS011;10387;51.102;6.848;2023-02-24T16:11:40;13.37;;;8.67;;
20456;SDS011;10387;51.102;6.848;2023-02-24T16:14:13;17.00;;;7.80;;
20456;SDS011;10387;51.102;6.848;2023-02-24T16:16:41;12.07;;;8.43;;
20456;SDS011;10387;51.102;6.848;2023-02-24T16:19:06;16.17;;;8.67;;
20456;SDS011;10387;51.102;6.848;2023-02-24T16:21:34;14.93;;;10.27;;
20456;SDS011;10387;51.102;6.848;2023-02-24T16:24:00;16.33;;;11.17;;
20456;SDS011;10387;51.102;6.848;2023-02-24T16:26:25;15.17;;;9.90;;
20456;SDS011;10387;51.102;6.848;2023-02-24T16:28:56;16.53;;;10.83;;
20456;SDS011;10387;51.102;6.848;2023-02-24T16:31:23;19.43;;;11.20;;
20456;SDS011;10387;51.102;6.848;2023-02-24T16:33:50;16.30;;;10.33;;
20456;SDS011;10387;51.102;6.848;2023-02-24T16:36:20;14.00;;;9.80;;
20456;SDS011;10387;51.102;6.848;2023-02-24T16:39:04;20.43;;;10.73;;
20456;SDS011;10387;51.102;6.848;2023-02-24T16:41:30;18.07;;;10.63;;
20456;SDS011;10387;51.102;6.848;2023-02-24T16:43:56;21.63;;;10.87;;
20456;SDS011;10387;51.102;6.848;2023-02-24T16:46:21;17.47;;;10.87;;
20456;SDS011;10387;51.102;6.848;2023-02-24T16:48:48;14.93;;;10.87;;
20456;SDS011;10387;51.102;6.848;2023-02-24T16:51:15;18.90;;;11.23;;
20456;SDS011;10387;51.102;6.848;2023-02-24T16:53:41;19.87;;;11.80;;
20456;SDS011;10387;51.102;6.848;2023-02-24T16:56:07;16.60;;;11.53;;
20456;SDS011;10387;51.102;6.848;2023-02-24T16:58:33;19.37;;;11.93;;
20456;SDS011;10387;51.102;6.848;2023-02-24T17:01:00;16.53;;;11.70;;
20456;SDS011;10387;51.102;6.848;2023-02-24T17:06:07;19.83;;;12.33;;
20456;SDS011;10387;51.102;6.848;2023-02-24T17:08:34;19.37;;;13.43;;
20456;SDS011;10387;51.102;6.848;2023-02-24T17:11:00;19.63;;;13.40;;
20456;SDS011;10387;51.102;6.848;2023-02-24T17:13:26;21.53;;;13.53;;
20456;SDS011;10387;51.102;6.848;2023-02-24T17:15:52;17.43;;;12.70;;
20456;SDS011;10387;51.102;6.848;2023-02-24T17:18:20;24.37;;;14.20;;
20456;SDS011;10387;51.102;6.848;2023-02-24T17:20:46;23.93;;;14.27;;
20456;SDS011;10387;51.102;6.848;2023-02-24T17:23:12;20.43;;;13.80;;
20456;SDS011;10387;51.102;6.848;2023-02-24T17:25:38;18.97;;;14.33;;
20456;SDS011;10387;51.102;6.848;2023-02-24T17:28:04;19.37;;;13.23;;
20456;SDS011;10387;51.102;6.848;2023-02-24T17:30:31;18.93;;;14.13;;
20456;SDS011;10387;51.102;6.848;2023-02-24T17:32:59;18.73;;;13.43;;
20456;SDS011;10387;51.102;6.848;2023-02-24T17:35:27;20.10;;;15.10;;
20456;SDS011;10387;51.102;6.848;2023-02-24T17:37:53;24.97;;;15.10;;
20456;SDS011;10387;51.102;6.848;2023-02-24T17:40:19;23.00;;;16.13;;
20456;SDS011;10387;51.102;6.848;2023-02-24T17:42:46;26.37;;;17.97;;